createdAt,value
2017-12-23T00:00:23.622Z,66.80
2017-12-23T00:02:54.566Z,66.90
2017-12-23T00:05:23.392Z,66.90
2017-12-23T00:07:58.456Z,67.20
2017-12-23T00:10:30.747Z,67.20
2017-12-23T00:12:59.438Z,67.20
2017-12-23T00:15:28.912Z,67.20
2017-12-23T00:17:57.553Z,67.10
2017-12-23T00:20:26.254Z,67.10
2017-12-23T00:22:55.764Z,67.10
2017-12-23T00:25:27.014Z,67.30
2017-12-23T00:27:56.645Z,67.30
2017-12-23T00:30:28.407Z,67.40
2017-12-23T00:32:57.163Z,67.60
2017-12-23T00:35:25.813Z,67.60
2017-12-23T00:37:54.513Z,67.40
2017-12-23T00:40:24.050Z,67.50
2017-12-23T00:42:53.716Z,67.40
2017-12-23T00:45:22.500Z,67.50
2017-12-23T00:47:51.216Z,67.50
2017-12-23T00:50:26.418Z,67.60
2017-12-23T00:52:55.321Z,67.60
2017-12-23T00:55:24.240Z,67.60
2017-12-23T00:57:53.172Z,67.70
2017-12-23T01:00:21.834Z,67.80
2017-12-23T01:02:50.502Z,68.00
2017-12-23T01:05:20.833Z,68.90
2017-12-23T01:07:55.542Z,68.80
2017-12-23T01:10:31.205Z,69.00
2017-12-23T01:12:59.903Z,69.00
2017-12-23T01:15:29.568Z,69.00
2017-12-23T01:17:59.008Z,69.70
2017-12-23T01:20:29.482Z,70.00
2017-12-23T01:22:58.154Z,69.90
2017-12-23T01:25:26.837Z,69.60
2017-12-23T01:27:55.511Z,69.70
2017-12-23T01:30:24.296Z,69.50
2017-12-23T01:32:59.238Z,69.30
2017-12-23T01:35:27.911Z,69.40
2017-12-23T01:37:56.641Z,69.50
2017-12-23T01:40:25.311Z,69.70
2017-12-23T01:42:54.882Z,69.90
2017-12-23T01:45:23.562Z,69.90
2017-12-23T01:47:58.492Z,69.60
2017-12-23T01:50:33.362Z,69.40
2017-12-23T01:53:02.072Z,69.40
2017-12-23T01:55:30.802Z,69.00
2017-12-23T01:58:05.767Z,68.80
2017-12-23T02:00:34.479Z,68.80
2017-12-23T02:03:04.080Z,68.70
2017-12-23T02:05:40.862Z,68.90
2017-12-23T02:08:10.347Z,68.70
2017-12-23T02:10:40.622Z,68.70
2017-12-23T02:13:13.423Z,68.90
2017-12-23T02:15:45.755Z,69.00
2017-12-23T02:18:15.194Z,69.30
2017-12-23T02:20:50.131Z,69.30
2017-12-23T02:23:20.579Z,69.30
2017-12-23T02:25:49.330Z,69.30
2017-12-23T02:28:18.134Z,69.30
2017-12-23T02:30:52.874Z,69.10
2017-12-23T02:33:21.560Z,69.80
2017-12-23T02:35:50.235Z,68.80
2017-12-23T02:38:18.956Z,68.60
2017-12-23T02:40:53.724Z,68.50
2017-12-23T02:43:22.469Z,68.50
2017-12-23T02:45:58.170Z,68.30
2017-12-23T02:48:26.869Z,68.20
2017-12-23T02:50:55.537Z,68.20
2017-12-23T02:53:24.212Z,68.00
2017-12-23T02:55:59.243Z,68.00
2017-12-23T02:58:27.907Z,68.10
2017-12-23T03:00:57.382Z,68.70
2017-12-23T03:03:26.052Z,68.70
2017-12-23T03:05:54.734Z,68.70
2017-12-23T03:08:23.410Z,68.60
2017-12-23T03:10:52.164Z,68.70
2017-12-23T03:13:22.554Z,68.60
2017-12-23T03:15:51.242Z,68.60
2017-12-23T03:18:19.928Z,68.40
2017-12-23T03:20:48.609Z,68.30
2017-12-23T03:23:23.154Z,68.10
2017-12-23T03:25:51.806Z,68.10
2017-12-23T03:28:20.499Z,68.10
2017-12-23T03:30:49.184Z,67.90
2017-12-23T03:33:17.895Z,67.80
2017-12-23T03:35:47.342Z,67.90
2017-12-23T03:38:16.036Z,67.70
2017-12-23T03:40:45.584Z,67.80
2017-12-23T03:43:14.279Z,67.90
2017-12-23T03:45:49.215Z,67.70
2017-12-23T03:48:18.680Z,67.60
2017-12-23T03:50:47.376Z,67.50
2017-12-23T03:53:16.061Z,67.50
2017-12-23T03:55:44.754Z,67.50
2017-12-23T03:58:13.452Z,67.40
2017-12-23T04:00:42.946Z,67.20
2017-12-23T04:03:12.520Z,67.10
2017-12-23T04:05:44.405Z,67.20
2017-12-23T04:08:13.472Z,67.20
2017-12-23T04:10:42.123Z,67.40
2017-12-23T04:13:10.805Z,67.50
2017-12-23T04:15:39.481Z,67.50
2017-12-23T04:18:14.456Z,67.50
2017-12-23T04:20:46.531Z,67.70
2017-12-23T04:23:16.040Z,67.90
2017-12-23T04:25:45.886Z,67.90
2017-12-23T04:28:15.362Z,67.60
2017-12-23T04:30:44.047Z,67.50
2017-12-23T04:33:18.895Z,67.70
2017-12-23T04:35:48.337Z,68.00
2017-12-23T04:38:17.021Z,67.60
2017-12-23T04:40:51.959Z,67.60
2017-12-23T04:43:26.762Z,67.50
2017-12-23T04:46:01.732Z,67.50
2017-12-23T04:48:30.401Z,67.50
2017-12-23T04:50:59.086Z,67.50
2017-12-23T04:53:29.420Z,67.40
2017-12-23T04:55:58.114Z,67.30
2017-12-23T04:58:26.791Z,67.10
2017-12-23T05:00:55.474Z,67.10
2017-12-23T05:03:24.159Z,67.10
2017-12-23T05:05:54.344Z,67.00
2017-12-23T05:08:23.793Z,67.20
2017-12-23T05:10:52.467Z,67.10
2017-12-23T05:13:21.150Z,67.20
2017-12-23T05:15:49.838Z,67.20
2017-12-23T05:18:20.179Z,67.00
2017-12-23T05:20:48.866Z,67.00
2017-12-23T05:23:17.583Z,66.90
2017-12-23T05:25:47.036Z,66.80
2017-12-23T05:28:15.722Z,66.80
2017-12-23T05:30:51.386Z,66.60
2017-12-23T05:33:20.091Z,66.50
2017-12-23T05:35:55.624Z,66.60
2017-12-23T05:38:24.306Z,66.60
2017-12-23T05:40:53.028Z,66.60
2017-12-23T05:43:28.010Z,66.50
2017-12-23T05:45:56.760Z,66.40
2017-12-23T05:48:26.195Z,66.50
2017-12-23T05:51:01.287Z,66.50
2017-12-23T05:53:30.738Z,66.50
2017-12-23T05:56:05.606Z,66.50
2017-12-23T05:58:35.058Z,66.30
2017-12-23T06:01:03.751Z,66.40
2017-12-23T06:03:32.466Z,66.20
2017-12-23T06:06:07.306Z,66.00
2017-12-23T06:08:35.994Z,66.20
2017-12-23T06:11:04.680Z,66.40
2017-12-23T06:13:39.647Z,66.70
2017-12-23T06:16:08.321Z,66.20
2017-12-23T06:18:37.055Z,66.00
2017-12-23T06:21:07.683Z,66.20
2017-12-23T06:23:36.435Z,66.00
2017-12-23T06:26:05.131Z,65.90
2017-12-23T06:28:40.705Z,65.70
2017-12-23T06:31:09.404Z,65.70
2017-12-23T06:33:38.095Z,65.60
2017-12-23T06:36:06.811Z,65.60
2017-12-23T06:38:36.262Z,65.50
2017-12-23T06:41:04.948Z,65.50
2017-12-23T06:43:33.644Z,65.20
2017-12-23T06:46:02.354Z,65.10
2017-12-23T06:48:31.027Z,65.10
2017-12-23T06:50:59.718Z,65.10
2017-12-23T06:53:28.416Z,65.00
2017-12-23T06:55:57.880Z,64.80
2017-12-23T06:58:26.595Z,64.80
2017-12-23T07:00:55.286Z,64.60
2017-12-23T07:03:30.315Z,64.50
2017-12-23T07:06:05.251Z,64.70
2017-12-23T07:08:33.974Z,64.70
2017-12-23T07:11:08.939Z,64.70
2017-12-23T07:13:37.692Z,64.50
2017-12-23T07:16:06.419Z,64.40
2017-12-23T07:18:35.095Z,64.40
2017-12-23T07:21:03.782Z,64.40
2017-12-23T07:23:38.742Z,64.00
2017-12-23T07:26:07.441Z,64.20
2017-12-23T07:28:42.351Z,64.50
2017-12-23T07:31:17.179Z,64.50
2017-12-23T07:33:52.911Z,64.50
2017-12-23T07:36:27.866Z,64.50
2017-12-23T07:38:57.411Z,64.50
2017-12-23T07:41:26.086Z,64.70
2017-12-23T07:44:01.786Z,64.70
2017-12-23T07:46:30.472Z,64.70
2017-12-23T07:49:05.406Z,64.50
2017-12-23T07:51:34.098Z,64.40
2017-12-23T07:54:02.815Z,64.30
2017-12-23T07:56:34.218Z,64.40
2017-12-23T07:59:02.947Z,64.30
2017-12-23T08:01:31.631Z,64.40
2017-12-23T08:04:00.311Z,64.40
2017-12-23T08:06:29.005Z,64.60
2017-12-23T08:08:57.688Z,64.40
2017-12-23T08:11:26.376Z,64.20
2017-12-23T08:13:55.052Z,64.20
2017-12-23T08:16:23.734Z,64.30
2017-12-23T08:18:58.725Z,64.30
2017-12-23T08:21:27.519Z,64.30
2017-12-23T08:24:02.539Z,64.40
2017-12-23T08:26:31.439Z,64.50
2017-12-23T08:29:07.023Z,64.50
2017-12-23T08:31:38.281Z,64.40
2017-12-23T08:34:17.023Z,64.20
2017-12-23T08:36:47.479Z,64.10
2017-12-23T08:39:22.612Z,64.00
2017-12-23T08:41:57.780Z,64.10
2017-12-23T08:44:27.670Z,64.00
2017-12-23T08:46:56.403Z,64.10
2017-12-23T08:49:30.655Z,64.40
2017-12-23T08:54:40.943Z,63.40
2017-12-23T08:57:14.071Z,63.40
2017-12-23T09:00:04.633Z,63.30
2017-12-23T09:02:53.127Z,63.10
2017-12-23T09:05:23.798Z,62.30
2017-12-23T09:07:58.617Z,62.30
2017-12-23T09:10:28.620Z,62.60
2017-12-23T09:13:08.700Z,62.50
2017-12-23T09:15:48.473Z,62.70
2017-12-23T09:18:22.772Z,62.50
2017-12-23T10:08:33.991Z,62.00
2017-12-23T10:22:40.415Z,63.30
2017-12-23T11:36:03.389Z,61.60
2017-12-23T11:38:32.851Z,62.00
2017-12-23T11:41:08.734Z,62.00
2017-12-23T11:43:43.704Z,61.20
2017-12-23T11:46:12.392Z,60.90
2017-12-23T11:48:47.406Z,60.20
2017-12-23T11:51:17.071Z,60.70
2017-12-23T11:53:45.787Z,61.10
2017-12-23T11:56:15.340Z,61.20
2017-12-23T11:58:44.030Z,61.00
2017-12-23T12:01:18.859Z,61.00
2017-12-23T12:03:53.839Z,60.80
2017-12-23T12:06:28.717Z,59.90
2017-12-23T12:09:03.562Z,60.60
2017-12-23T12:11:44.690Z,60.30
2017-12-23T12:14:19.788Z,60.10
2017-12-23T12:16:49.407Z,59.70
2017-12-23T12:19:18.984Z,59.70
2017-12-23T12:21:47.712Z,59.50
2017-12-23T12:24:16.383Z,59.50
2017-12-23T12:27:09.018Z,59.70
2017-12-23T12:29:43.943Z,59.20
2017-12-23T12:32:12.661Z,59.00
2017-12-23T12:34:41.351Z,59.00
2017-12-23T12:37:10.818Z,59.30
2017-12-23T12:39:39.512Z,59.30
2017-12-23T12:42:09.007Z,59.40
2017-12-23T12:44:37.728Z,59.40
2017-12-23T12:47:06.416Z,59.30
2017-12-23T12:49:41.344Z,59.50
2017-12-23T12:52:16.215Z,59.60
2017-12-23T12:54:44.914Z,59.90
2017-12-23T12:57:13.600Z,60.30
2017-12-23T12:59:42.320Z,60.50
2017-12-23T13:02:17.111Z,60.30
2017-12-23T13:04:45.859Z,60.20
2017-12-23T13:07:15.848Z,60.60
2017-12-23T13:09:45.516Z,60.60
2017-12-23T13:12:14.224Z,60.90
2017-12-23T13:14:42.944Z,60.90
2017-12-23T13:17:11.641Z,60.70
2017-12-23T13:19:46.644Z,61.40
2017-12-23T13:22:21.477Z,60.80
2017-12-23T13:24:50.271Z,60.70
2017-12-23T13:27:25.221Z,61.00
2017-12-23T13:30:00.109Z,60.60
2017-12-23T13:32:34.992Z,60.90
2017-12-23T13:35:04.457Z,60.90
2017-12-23T13:37:38.300Z,61.20
2017-12-23T13:40:21.068Z,61.50
2017-12-23T13:42:49.740Z,61.80
2017-12-23T13:45:18.419Z,61.70
2017-12-23T13:47:47.994Z,61.70
2017-12-23T13:50:16.684Z,61.60
2017-12-23T13:52:46.253Z,61.60
2017-12-23T13:55:21.194Z,62.40
2017-12-23T13:57:49.887Z,62.50
2017-12-23T14:00:25.491Z,61.80
2017-12-23T14:02:55.052Z,61.90
2017-12-23T14:05:24.528Z,60.30
2017-12-23T14:07:59.307Z,60.30
2017-12-23T14:10:28.025Z,60.40
2017-12-23T14:12:56.711Z,60.10
2017-12-23T14:15:25.490Z,59.60
2017-12-23T14:18:00.455Z,59.70
2017-12-23T14:20:35.467Z,59.20
2017-12-23T14:23:04.315Z,59.30
2017-12-23T14:25:33.176Z,59.40
2017-12-23T14:28:03.904Z,60.00
2017-12-23T14:30:39.052Z,60.00
2017-12-23T14:33:08.424Z,60.00
2017-12-23T14:35:38.241Z,60.40
2017-12-23T14:38:07.109Z,60.90
2017-12-23T14:40:47.694Z,61.60
2017-12-23T14:43:20.081Z,61.70
2017-12-23T14:45:53.771Z,61.80
2017-12-23T14:48:22.519Z,62.00
2017-12-23T14:50:54.207Z,62.00
2017-12-23T14:53:23.006Z,62.00
2017-12-23T14:55:51.706Z,62.20
2017-12-23T15:04:27.931Z,62.90
2017-12-23T15:07:05.305Z,63.10
2017-12-23T15:09:34.490Z,63.20
2017-12-23T15:12:10.230Z,63.40
2017-12-23T15:14:40.348Z,63.00
2017-12-23T15:17:10.870Z,62.40
2017-12-23T15:19:47.195Z,62.50
2017-12-23T15:22:22.203Z,62.60
2017-12-23T15:24:52.856Z,62.10
2017-12-23T15:27:27.354Z,62.10
2017-12-23T15:29:57.619Z,62.10
2017-12-23T15:32:33.533Z,61.40
2017-12-23T15:35:03.510Z,61.10
2017-12-23T15:37:41.264Z,60.90
2017-12-23T15:40:16.707Z,60.60
2017-12-23T15:42:47.323Z,60.70
2017-12-23T15:45:19.419Z,60.60
2017-12-23T15:47:50.928Z,60.70
2017-12-23T15:50:28.812Z,60.70
2017-12-23T15:53:04.279Z,60.60
2017-12-23T15:55:39.514Z,60.30
2017-12-23T15:58:08.192Z,60.30
2017-12-23T16:00:36.904Z,60.20
2017-12-23T16:03:11.851Z,60.30
2017-12-23T16:05:44.313Z,60.30
2017-12-23T16:08:19.292Z,60.40
2017-12-23T16:10:54.241Z,60.40
2017-12-23T16:13:22.980Z,60.50
2017-12-23T16:15:52.670Z,60.80
2017-12-23T16:18:21.707Z,60.80
2017-12-23T16:20:50.543Z,60.60
2017-12-23T16:23:20.158Z,60.80
2017-12-23T16:25:55.090Z,61.00
2017-12-23T16:28:29.902Z,61.10
2017-12-23T16:30:58.599Z,61.00
2017-12-23T16:33:35.668Z,60.90
2017-12-23T16:36:11.284Z,61.00
2017-12-23T16:38:39.975Z,61.00
2017-12-23T16:41:10.484Z,61.20
2017-12-23T16:43:39.956Z,61.60
2017-12-23T16:46:14.904Z,61.60
2017-12-23T16:48:43.604Z,61.40
2017-12-23T16:51:18.490Z,61.30
2017-12-23T16:53:48.056Z,61.40
2017-12-23T16:56:16.748Z,61.40
2017-12-23T16:58:46.315Z,61.40
2017-12-23T17:01:21.113Z,61.30
2017-12-23T17:03:56.323Z,61.30
2017-12-23T17:06:25.058Z,61.30
2017-12-23T17:09:01.129Z,61.30
2017-12-23T17:11:36.036Z,61.30
2017-12-23T17:14:10.980Z,61.20
2017-12-23T17:16:48.931Z,61.10
2017-12-23T17:19:17.955Z,61.10
2017-12-23T17:21:47.150Z,60.80
2017-12-23T17:24:22.330Z,61.10
2017-12-23T17:26:57.233Z,61.30
2017-12-23T17:29:45.087Z,60.80
2017-12-23T17:32:19.872Z,60.80
2017-12-23T17:34:54.864Z,61.10
2017-12-23T17:37:29.659Z,60.90
2017-12-23T17:39:58.367Z,61.10
2017-12-23T17:42:27.057Z,61.40
2017-12-23T17:45:01.888Z,61.40
2017-12-23T17:47:31.390Z,61.40
2017-12-23T17:50:00.415Z,61.40
2017-12-23T17:52:30.186Z,61.30
2017-12-23T17:54:59.876Z,61.30
2017-12-23T17:57:34.998Z,61.30
2017-12-23T18:00:04.527Z,61.10
2017-12-23T18:02:39.311Z,60.80
2017-12-23T18:05:08.880Z,61.20
2017-12-23T18:07:49.879Z,61.30
2017-12-23T18:10:24.668Z,61.00
2017-12-23T18:12:53.351Z,60.70
2017-12-23T18:15:22.912Z,60.40
2017-12-23T18:17:51.648Z,60.00
2017-12-23T18:20:26.653Z,60.00
2017-12-23T18:22:56.809Z,60.10
2017-12-23T18:25:26.283Z,59.80
2017-12-23T18:28:03.450Z,59.80
2017-12-23T18:30:33.087Z,59.40
2017-12-23T18:33:01.788Z,59.00
2017-12-23T18:35:36.731Z,59.00
2017-12-23T18:38:06.558Z,59.20
2017-12-23T18:40:36.016Z,59.40
2017-12-23T18:43:10.924Z,59.30
2017-12-23T18:45:53.401Z,59.40
2017-12-23T18:48:28.464Z,59.20
2017-12-23T18:51:03.458Z,58.90
2017-12-23T18:53:37.586Z,59.20
2017-12-23T18:56:07.176Z,59.10
2017-12-23T18:58:42.072Z,59.20
2017-12-23T19:01:11.891Z,59.00
2017-12-23T19:03:47.674Z,59.00
2017-12-23T19:06:17.201Z,59.00
2017-12-23T19:08:51.999Z,59.00
2017-12-23T19:11:22.421Z,59.20
2017-12-23T19:13:57.345Z,59.20
2017-12-23T19:16:49.719Z,59.30
2017-12-23T19:19:18.409Z,59.30
2017-12-23T19:21:47.878Z,59.40
2017-12-23T19:24:22.655Z,59.30
2017-12-23T19:26:51.365Z,59.40
2017-12-23T19:29:20.055Z,59.40
2017-12-23T19:31:48.732Z,59.40
2017-12-23T19:34:17.451Z,59.40
2017-12-23T19:36:46.149Z,59.10
2017-12-23T19:39:16.551Z,59.40
2017-12-23T19:41:45.232Z,59.40
2017-12-23T19:44:20.154Z,59.20
2017-12-23T19:46:49.707Z,59.40
2017-12-23T19:49:25.342Z,59.50
2017-12-23T19:51:54.854Z,59.50
2017-12-23T19:54:28.343Z,59.50
2017-12-23T19:56:57.882Z,59.60
2017-12-23T19:59:26.555Z,59.60
2017-12-23T20:01:56.004Z,59.60
2017-12-23T20:04:24.681Z,59.60
2017-12-23T20:06:53.381Z,59.80
2017-12-23T20:09:28.167Z,59.60
2017-12-23T20:12:02.937Z,59.60
2017-12-23T20:14:31.620Z,59.60
2017-12-23T20:17:04.316Z,59.50
2017-12-23T20:19:32.988Z,60.10
2017-12-23T20:22:01.707Z,59.30
2017-12-23T20:24:36.592Z,59.60
2017-12-23T20:27:12.710Z,59.80
2017-12-23T20:29:47.507Z,59.80
2017-12-23T20:32:16.224Z,60.00
2017-12-23T20:34:46.597Z,59.90
2017-12-23T20:37:16.171Z,59.90
2017-12-23T20:39:53.811Z,59.60
2017-12-23T20:42:23.455Z,59.60
2017-12-23T20:44:53.830Z,60.00
2017-12-23T20:47:29.000Z,60.00
2017-12-23T20:50:03.889Z,60.10
2017-12-23T20:52:37.255Z,60.20
2017-12-23T20:55:12.296Z,60.00
2017-12-23T20:57:41.259Z,60.10
2017-12-23T21:00:10.719Z,59.70
2017-12-23T21:02:39.404Z,59.70
2017-12-23T21:05:15.280Z,59.80
2017-12-23T21:08:02.302Z,60.10
2017-12-23T21:10:37.347Z,59.90
2017-12-23T21:13:14.155Z,59.90
2017-12-23T21:15:43.918Z,60.10
2017-12-23T21:18:13.476Z,59.90
2017-12-23T21:20:42.309Z,59.70
2017-12-23T21:23:17.002Z,59.70
2017-12-23T21:25:45.858Z,59.50
2017-12-23T21:28:15.431Z,59.90
2017-12-23T21:30:51.346Z,59.90
2017-12-23T21:33:20.023Z,59.60
2017-12-23T21:35:53.918Z,60.70
2017-12-23T21:38:24.445Z,59.90
2017-12-23T21:40:55.020Z,59.70
2017-12-23T21:43:25.696Z,59.60
2017-12-23T21:45:56.326Z,59.60
2017-12-23T21:48:31.221Z,59.50
2017-12-23T21:51:06.764Z,59.30
2017-12-23T21:53:35.443Z,59.30
2017-12-23T21:56:04.115Z,59.40
2017-12-23T21:58:32.794Z,59.30
2017-12-23T22:01:01.464Z,59.30
2017-12-23T22:03:30.277Z,59.30
2017-12-23T22:05:59.953Z,59.20
2017-12-23T22:08:30.315Z,59.40
2017-12-23T22:10:59.034Z,59.50
2017-12-23T22:13:29.643Z,59.40
2017-12-23T22:15:58.686Z,59.30
2017-12-23T22:18:29.929Z,59.20
2017-12-23T22:21:00.708Z,59.30
2017-12-23T22:23:34.077Z,59.20
2017-12-23T22:26:04.602Z,59.00
2017-12-23T22:28:33.399Z,59.00
2017-12-23T22:31:02.080Z,59.00
2017-12-23T22:33:30.754Z,58.80
2017-12-23T22:36:05.659Z,58.90
2017-12-23T22:38:34.412Z,59.00
2017-12-23T22:41:04.736Z,58.80
2017-12-23T22:43:34.856Z,58.70
2017-12-23T22:46:04.975Z,58.70
2017-12-23T22:48:33.661Z,58.60
2017-12-23T22:51:02.354Z,58.20
2017-12-23T22:53:31.058Z,58.30
2017-12-23T22:56:06.021Z,58.40
2017-12-23T22:58:40.810Z,58.40
2017-12-23T23:01:09.760Z,58.30
2017-12-23T23:03:38.839Z,58.40
2017-12-23T23:06:13.758Z,58.30
2017-12-23T23:08:43.316Z,58.20
2017-12-23T23:11:11.991Z,58.20
2017-12-23T23:13:41.530Z,58.10
2017-12-23T23:16:10.204Z,57.70
2017-12-23T23:18:40.018Z,57.70
2017-12-23T23:21:08.674Z,57.70
2017-12-23T23:23:38.476Z,57.60
2017-12-23T23:26:09.091Z,57.60
2017-12-23T23:28:37.810Z,57.60
2017-12-23T23:31:06.486Z,57.40
2017-12-23T23:33:37.316Z,57.40
2017-12-23T23:36:06.950Z,57.40
2017-12-23T23:38:35.619Z,57.30
2017-12-23T23:41:05.094Z,56.90
2017-12-23T23:43:33.750Z,57.00
2017-12-23T23:46:02.439Z,56.90
2017-12-23T23:48:32.135Z,57.10
2017-12-23T23:51:00.852Z,57.10
2017-12-23T23:53:31.550Z,57.30
2017-12-23T23:56:00.258Z,57.30
2017-12-23T23:58:29.919Z,57.30
